Time;durP1;ratioP1;P1;durP2;ratioP2;P2;SDS_P1;SDS_P2;PMS_P1;PMS_P2;Temp;Humidity;BMP_temperature;BMP_pressure;BME280_temperature;BME280_humidity;BME280_pressure;Samples;Min_cycle;Max_cycle;Signal;HPM_P1;HPM_P2
2022/10/07 00:02:13;;;;;;;5.32;1.75;;;;;15.70;102534.00;;;;4987429;28;20206;-77
2022/10/07 00:04:44;;;;;;;3.90;1.75;;;;;15.70;102537.00;;;;4988291;28;20197;-77
2022/10/07 00:07:12;;;;;;;6.93;1.95;;;;;15.70;102530.00;;;;4988213;28;20190;-77
2022/10/07 00:09:41;;;;;;;5.32;1.88;;;;;15.60;102527.00;;;;4985959;28;20749;-77
2022/10/07 00:12:08;;;;;;;3.80;1.48;;;;;15.70;102525.00;;;;4986110;28;20205;-77
2022/10/07 00:14:36;;;;;;;2.67;1.58;;;;;15.60;102522.00;;;;4986258;28;20896;-78
2022/10/07 00:17:03;;;;;;;3.53;1.80;;;;;15.60;102523.00;;;;4982279;28;20688;-77
2022/10/07 00:19:31;;;;;;;2.30;1.50;;;;;15.60;102521.00;;;;4976394;28;20205;-77
2022/10/07 00:21:58;;;;;;;6.40;1.55;;;;;15.60;102520.00;;;;4986270;28;20824;-77
2022/10/07 00:24:25;;;;;;;5.85;1.90;;;;;15.60;102519.00;;;;4984371;28;20194;-77
2022/10/07 00:26:54;;;;;;;2.58;1.20;;;;;15.60;102515.00;;;;4987177;28;20206;-77
2022/10/07 00:29:22;;;;;;;6.97;2.20;;;;;15.60;102509.00;;;;4986821;28;20208;-77
2022/10/07 00:31:49;;;;;;;6.13;1.92;;;;;15.60;102509.00;;;;4986647;28;20205;-77
2022/10/07 00:34:16;;;;;;;3.63;1.88;;;;;15.60;102507.00;;;;4983226;28;20205;-77
2022/10/07 00:36:44;;;;;;;4.68;2.00;;;;;15.60;102509.00;;;;4987661;28;20243;-77
2022/10/07 00:39:13;;;;;;;3.00;1.80;;;;;15.60;102506.00;;;;4991917;28;20660;-77
2022/10/07 00:41:43;;;;;;;2.50;1.67;;;;;15.60;102503.00;;;;4988812;28;20687;-77
2022/10/07 00:44:40;;;;;;;4.68;1.77;;;;;15.40;102508.00;;;;4990464;28;20682;-77
2022/10/07 00:47:18;;;;;;;3.55;1.67;;;;;15.50;102502.00;;;;4990751;28;20220;-77
2022/10/07 00:49:49;;;;;;;2.97;1.60;;;;;15.50;102500.00;;;;4990306;28;20201;-77
2022/10/07 00:52:20;;;;;;;4.40;1.60;;;;;15.50;102496.00;;;;4990372;28;20205;-77
2022/10/07 00:54:51;;;;;;;3.25;1.48;;;;;15.50;102488.00;;;;4989042;28;20606;-77
2022/10/07 00:57:20;;;;;;;5.90;1.95;;;;;15.50;102481.00;;;;4990131;28;20201;-77
2022/10/07 00:59:49;;;;;;;2.20;1.63;;;;;15.50;102485.00;;;;4990928;28;20308;-77
2022/10/07 01:02:16;;;;;;;3.95;1.75;;;;;15.50;102481.00;;;;4994753;28;20202;-77
2022/10/07 01:04:45;;;;;;;3.92;2.15;;;;;15.50;102476.00;;;;4989611;28;20663;-77
2022/10/07 01:07:12;;;;;;;4.88;2.22;;;;;15.50;102472.00;;;;4972288;28;20206;-77
2022/10/07 01:09:39;;;;;;;2.60;1.73;;;;;15.50;102473.00;;;;4988870;28;20312;-78
2022/10/07 01:12:14;;;;;;;3.33;1.77;;;;;15.50;102473.00;;;;4989883;28;20571;-78
2022/10/07 01:14:56;;;;;;;2.25;1.33;;;;;15.50;102471.00;;;;4990828;28;20224;-77
2022/10/07 01:17:30;;;;;;;4.63;1.65;;;;;15.50;102467.00;;;;4991105;28;20438;-77
2022/10/07 01:20:23;;;;;;;4.05;1.75;;;;;15.40;102456.00;;;;4988508;28;20193;-77
2022/10/07 01:23:03;;;;;;;4.57;1.95;;;;;15.50;102454.00;;;;4983184;28;21284;-77
2022/10/07 01:25:43;;;;;;;2.25;1.58;;;;;15.40;102453.00;;;;4986339;28;20656;-77
2022/10/07 01:28:17;;;;;;;4.90;2.00;;;;;15.40;102445.00;;;;4990851;28;20644;-77
2022/10/07 01:30:52;;;;;;;3.28;2.13;;;;;15.40;102445.00;;;;4990206;28;20221;-77
2022/10/07 01:33:26;;;;;;;5.85;2.25;;;;;15.40;102440.00;;;;4989829;28;20644;-77
2022/10/07 01:35:56;;;;;;;6.28;1.83;;;;;15.40;102438.00;;;;4988919;28;20338;-77
2022/10/07 01:38:26;;;;;;;3.78;2.25;;;;;15.40;102437.00;;;;4986768;28;20206;-77
2022/10/07 01:40:57;;;;;;;4.13;1.85;;;;;15.40;102437.00;;;;4985898;28;20201;-77
2022/10/07 01:43:26;;;;;;;4.70;1.92;;;;;15.40;102434.00;;;;4970709;28;20288;-77
2022/10/07 01:45:55;;;;;;;4.90;1.85;;;;;15.40;102423.00;;;;4975690;28;20668;-78
2022/10/07 01:48:22;;;;;;;6.55;2.05;;;;;15.40;102428.00;;;;4989383;28;20201;-77
2022/10/07 01:50:50;;;;;;;6.55;2.17;;;;;15.40;102427.00;;;;4988494;28;20229;-77
2022/10/07 01:53:32;;;;;;;3.83;2.20;;;;;15.30;102420.00;;;;4986828;28;20209;-77
2022/10/07 01:56:18;;;;;;;5.35;2.40;;;;;15.30;102414.00;;;;4990510;28;20225;-77
2022/10/07 01:59:03;;;;;;;3.38;2.08;;;;;15.30;102411.00;;;;4976020;28;20207;-77
2022/10/07 02:01:37;;;;;;;5.80;2.30;;;;;15.30;102401.00;;;;4988087;28;20264;-77
2022/10/07 02:04:19;;;;;;;4.40;2.10;;;;;15.30;102401.00;;;;4989103;28;20222;-77
2022/10/07 02:06:53;;;;;;;6.47;2.15;;;;;15.30;102391.00;;;;4988495;28;20209;-77
2022/10/07 02:09:28;;;;;;;2.67;1.85;;;;;15.30;102382.00;;;;4988462;28;20208;-78
2022/10/07 02:12:04;;;;;;;2.50;1.88;;;;;15.30;102388.00;;;;4989509;28;20201;-77
2022/10/07 02:14:40;;;;;;;2.50;2.00;;;;;15.30;102388.00;;;;4983446;28;20210;-77
2022/10/07 02:17:13;;;;;;;4.60;2.35;;;;;15.30;102376.00;;;;4973890;28;20221;-78
2022/10/07 02:19:45;;;;;;;5.28;1.85;;;;;15.30;102377.00;;;;4986682;28;20194;-78
2022/10/07 02:22:15;;;;;;;2.90;1.80;;;;;15.30;102367.00;;;;4990292;28;20478;-77
2022/10/07 02:24:46;;;;;;;4.97;2.08;;;;;15.30;102372.00;;;;4989362;28;20607;-77
2022/10/07 02:27:18;;;;;;;4.55;2.20;;;;;15.30;102361.00;;;;4986592;28;20709;-78
2022/10/07 02:29:48;;;;;;;5.88;2.35;;;;;15.30;102347.00;;;;4989052;28;20189;-77
2022/10/07 02:32:20;;;;;;;3.35;1.98;;;;;15.30;102353.00;;;;4980848;28;20205;-77
2022/10/07 02:34:53;;;;;;;3.33;2.00;;;;;15.30;102349.00;;;;4970196;28;20202;-77
2022/10/07 02:37:25;;;;;;;6.80;2.30;;;;;15.20;102348.00;;;;4981538;28;20234;-77
2022/10/07 02:39:54;;;;;;;4.80;2.28;;;;;15.30;102344.00;;;;4988043;28;20215;-77
2022/10/07 02:42:27;;;;;;;6.85;2.28;;;;;15.20;102347.00;;;;4987985;28;20214;-78
2022/10/07 02:45:01;;;;;;;4.38;2.40;;;;;15.20;102337.00;;;;4989521;28;20202;-77
2022/10/07 02:47:33;;;;;;;3.80;2.35;;;;;15.20;102340.00;;;;4986233;28;20607;-77
2022/10/07 02:50:05;;;;;;;5.47;2.38;;;;;15.20;102336.00;;;;4984591;28;20201;-77
2022/10/07 02:52:34;;;;;;;7.00;2.33;;;;;15.20;102328.00;;;;4988552;28;20198;-77
2022/10/07 02:55:05;;;;;;;3.58;1.80;;;;;15.30;102333.00;;;;4988469;28;20209;-77
2022/10/07 02:57:36;;;;;;;8.45;2.72;;;;;15.20;102328.00;;;;4988172;28;20663;-77
2022/10/07 03:00:06;;;;;;;3.83;2.00;;;;;15.20;102319.00;;;;4987740;28;20229;-77
2022/10/07 03:02:42;;;;;;;4.38;2.22;;;;;15.20;102322.00;;;;4988361;28;20573;-78
2022/10/07 03:05:11;;;;;;;6.15;2.30;;;;;15.20;102315.00;;;;4987261;28;20240;-77
2022/10/07 03:07:38;;;;;;;6.97;2.38;;;;;15.20;102322.00;;;;4977164;28;20204;-77
2022/10/07 03:10:09;;;;;;;5.78;2.50;;;;;15.20;102326.00;;;;4987709;28;20212;-78
2022/10/07 03:12:36;;;;;;;3.08;1.70;;;;;15.20;102323.00;;;;4988099;28;20198;-78
2022/10/07 03:15:05;;;;;;;5.40;2.10;;;;;15.20;102322.00;;;;4987549;28;20232;-77
2022/10/07 03:17:33;;;;;;;5.47;2.17;;;;;15.20;102319.00;;;;4988424;28;20557;-77
2022/10/07 03:20:00;;;;;;;4.82;2.00;;;;;15.20;102314.00;;;;4986748;28;20194;-77
2022/10/07 03:22:28;;;;;;;5.00;2.17;;;;;15.20;102308.00;;;;4984822;28;20210;-77
2022/10/07 03:24:55;;;;;;;4.55;2.20;;;;;15.20;102303.00;;;;4986525;28;20236;-78
2022/10/07 03:27:22;;;;;;;3.38;1.73;;;;;15.20;102303.00;;;;4987343;28;20194;-78
2022/10/07 03:29:50;;;;;;;7.35;2.65;;;;;15.20;102298.00;;;;4984251;28;20204;-78
2022/10/07 03:32:18;;;;;;;3.97;2.45;;;;;15.10;102298.00;;;;4987392;28;20655;-78
2022/10/07 03:34:45;;;;;;;3.58;2.05;;;;;15.10;102296.00;;;;4988123;28;20205;-77
2022/10/07 03:37:13;;;;;;;4.28;1.95;;;;;15.10;102297.00;;;;4988965;28;20241;-77
2022/10/07 03:39:40;;;;;;;5.90;2.60;;;;;15.10;102299.00;;;;4987860;28;20202;-77
2022/10/07 03:42:08;;;;;;;3.33;2.30;;;;;15.10;102295.00;;;;4987250;28;20637;-77
2022/10/07 03:44:37;;;;;;;2.55;1.90;;;;;15.10;102285.00;;;;4986811;28;20205;-77
2022/10/07 03:47:04;;;;;;;5.32;1.98;;;;;15.10;102294.00;;;;4986964;28;20452;-77
2022/10/07 03:49:33;;;;;;;5.68;2.28;;;;;15.10;102284.00;;;;4987103;28;20205;-77
2022/10/07 03:52:01;;;;;;;5.20;2.55;;;;;15.10;102275.00;;;;4987267;28;20209;-77
2022/10/07 03:54:30;;;;;;;8.48;3.08;;;;;15.10;102279.00;;;;4987397;28;20288;-78
2022/10/07 03:56:57;;;;;;;5.22;2.40;;;;;15.10;102277.00;;;;4981554;28;20707;-77
2022/10/07 03:59:24;;;;;;;5.60;2.50;;;;;15.10;102279.00;;;;4977315;28;21149;-78
2022/10/07 04:01:51;;;;;;;3.85;2.08;;;;;15.10;102274.00;;;;4988974;28;20223;-78
2022/10/07 04:04:19;;;;;;;7.82;2.38;;;;;15.10;102270.00;;;;4986169;28;20495;-78
2022/10/07 04:06:48;;;;;;;4.25;1.83;;;;;15.00;102269.00;;;;4988503;28;20205;-78
2022/10/07 04:09:15;;;;;;;5.20;2.38;;;;;15.10;102262.00;;;;4987581;28;20206;-77
2022/10/07 04:11:42;;;;;;;4.70;2.15;;;;;15.00;102261.00;;;;4987603;28;20735;-78
2022/10/07 04:14:10;;;;;;;6.18;2.15;;;;;15.00;102265.00;;;;4982982;28;20589;-78
2022/10/07 04:16:38;;;;;;;3.30;1.92;;;;;15.00;102267.00;;;;4982707;28;20232;-78
2022/10/07 04:19:06;;;;;;;4.15;2.10;;;;;15.00;102259.00;;;;4990716;28;20193;-78
2022/10/07 04:21:33;;;;;;;6.95;2.20;;;;;15.00;102262.00;;;;4991827;28;20652;-78
2022/10/07 04:24:02;;;;;;;4.20;2.30;;;;;15.00;102261.00;;;;4990474;28;20275;-77
2022/10/07 04:26:29;;;;;;;7.10;3.17;;;;;15.00;102259.00;;;;4991075;28;20212;-78
2022/10/07 04:28:58;;;;;;;5.60;1.77;;;;;15.00;102253.00;;;;4990287;28;20194;-77
2022/10/07 04:31:29;;;;;;;4.65;1.67;;;;;15.00;102255.00;;;;4979931;28;20207;-77
2022/10/07 04:33:56;;;;;;;5.13;2.05;;;;;15.00;102257.00;;;;4991802;28;20550;-78
2022/10/07 04:36:24;;;;;;;5.10;2.25;;;;;15.00;102250.00;;;;4991419;28;20237;-78
2022/10/07 04:38:51;;;;;;;5.03;2.20;;;;;15.00;102251.00;;;;4989415;28;20217;-78
2022/10/07 04:41:20;;;;;;;2.85;1.98;;;;;14.90;102248.00;;;;4985749;28;20206;-78
2022/10/07 04:43:50;;;;;;;4.22;2.05;;;;;14.90;102253.00;;;;4990081;28;20205;-78
2022/10/07 04:46:17;;;;;;;6.35;1.88;;;;;15.00;102251.00;;;;4990408;28;20668;-77
2022/10/07 04:48:45;;;;;;;5.25;2.17;;;;;14.90;102257.00;;;;4984270;28;20228;-78
2022/10/07 04:51:14;;;;;;;3.53;1.77;;;;;14.90;102259.00;;;;4987383;28;20205;-78
2022/10/07 04:53:42;;;;;;;5.22;2.35;;;;;14.90;102251.00;;;;4990205;28;20252;-78
2022/10/07 04:56:10;;;;;;;5.85;2.00;;;;;14.90;102252.00;;;;4988630;28;20261;-78
2022/10/07 04:58:38;;;;;;;5.55;1.90;;;;;14.90;102252.00;;;;4988024;28;20248;-78
2022/10/07 05:01:09;;;;;;;3.40;1.60;;;;;14.90;102242.00;;;;4990279;28;21012;-78
2022/10/07 05:03:38;;;;;;;3.28;1.73;;;;;14.90;102247.00;;;;4980680;28;20210;-78
2022/10/07 05:06:07;;;;;;;3.58;1.90;;;;;14.90;102239.00;;;;4982147;28;20204;-78
2022/10/07 05:08:34;;;;;;;4.13;2.00;;;;;14.90;102239.00;;;;4989728;28;20213;-78
2022/10/07 05:11:03;;;;;;;4.38;2.03;;;;;14.90;102242.00;;;;4989472;28;20202;-78
2022/10/07 05:13:31;;;;;;;5.13;2.55;;;;;14.90;102239.00;;;;4989185;28;20205;-78
2022/10/07 05:16:01;;;;;;;10.02;2.15;;;;;14.90;102232.00;;;;4988769;28;20598;-78
2022/10/07 05:18:30;;;;;;;4.60;2.17;;;;;15.00;102238.00;;;;4986753;28;20202;-78
2022/10/07 05:20:57;;;;;;;4.47;1.42;;;;;14.90;102232.00;;;;4987853;28;20208;-78
2022/10/07 05:23:27;;;;;;;6.30;2.17;;;;;14.90;102235.00;;;;4975414;28;20206;-77
2022/10/07 05:25:58;;;;;;;5.90;1.63;;;;;14.90;102227.00;;;;4989989;28;20280;-78
2022/10/07 05:28:26;;;;;;;3.92;1.90;;;;;15.00;102227.00;;;;4985191;28;20206;-78
2022/10/07 05:31:04;;;;;;;5.65;1.50;;;;;14.90;102222.00;;;;4986927;28;20287;-77
2022/10/07 05:33:31;;;;;;;4.75;1.65;;;;;15.00;102226.00;;;;4985978;28;20241;-77
2022/10/07 05:35:59;;;;;;;6.25;2.20;;;;;15.00;102235.00;;;;4988531;28;20212;-78
2022/10/07 05:38:27;;;;;;;6.32;1.80;;;;;15.00;102228.00;;;;4987716;28;20208;-78
2022/10/07 05:40:59;;;;;;;4.75;2.08;;;;;15.00;102227.00;;;;4988824;28;20288;-78
2022/10/07 05:43:26;;;;;;;3.45;1.45;;;;;15.00;102218.00;;;;4989104;28;20252;-78
2022/10/07 05:46:02;;;;;;;3.03;1.60;;;;;15.00;102217.00;;;;4986359;28;20201;-78
2022/10/07 05:48:30;;;;;;;7.82;1.60;;;;;15.00;102215.00;;;;4987427;28;20662;-77
2022/10/07 05:50:58;;;;;;;3.67;1.52;;;;;15.00;102220.00;;;;4986504;28;20194;-78
2022/10/07 05:53:26;;;;;;;3.10;1.85;;;;;15.10;102210.00;;;;4986178;28;20198;-77
2022/10/07 05:55:54;;;;;;;4.82;2.33;;;;;15.10;102217.00;;;;4977069;28;20194;-79
2022/10/07 05:58:22;;;;;;;6.45;1.85;;;;;15.10;102210.00;;;;4971453;28;20719;-78
2022/10/07 06:00:52;;;;;;;5.05;1.90;;;;;15.10;102207.00;;;;4983223;28;20229;-78
2022/10/07 06:03:21;;;;;;;3.47;1.75;;;;;15.20;102205.00;;;;4985463;28;20321;-79
2022/10/07 06:05:50;;;;;;;5.13;2.30;;;;;15.20;102205.00;;;;4986430;28;20212;-79
2022/10/07 06:08:18;;;;;;;4.35;1.55;;;;;15.20;102214.00;;;;4986884;28;20206;-79
2022/10/07 06:13:31;;;;;;;9.85;1.75;;;;;15.30;102208.00;;;;4985722;28;20340;-78
2022/10/07 06:16:02;;;;;;;3.97;1.52;;;;;15.30;102213.00;;;;4989355;28;20221;-79
2022/10/07 06:18:31;;;;;;;5.18;1.60;;;;;15.40;102208.00;;;;4989133;28;20257;-78
2022/10/07 06:21:00;;;;;;;9.68;1.67;;;;;15.50;102208.00;;;;4988131;28;20210;-78
2022/10/07 06:23:29;;;;;;;5.75;1.65;;;;;15.50;102206.00;;;;4989772;28;20197;-78
2022/10/07 06:25:57;;;;;;;6.57;1.30;;;;;15.60;102202.00;;;;4990172;28;20583;-79
2022/10/07 06:28:25;;;;;;;4.18;1.88;;;;;15.60;102202.00;;;;4987294;28;20213;-78
2022/10/07 06:30:52;;;;;;;5.30;1.85;;;;;15.70;102198.00;;;;4989184;28;20229;-79
2022/10/07 06:33:20;;;;;;;4.72;2.10;;;;;15.70;102203.00;;;;4988949;28;20206;-78
2022/10/07 06:35:49;;;;;;;3.72;1.55;;;;;15.80;102201.00;;;;4988955;28;20213;-78
2022/10/07 06:38:16;;;;;;;3.95;1.50;;;;;15.80;102204.00;;;;4987716;28;20233;-79
2022/10/07 06:40:43;;;;;;;8.73;2.58;;;;;15.90;102203.00;;;;4989232;28;20292;-78
2022/10/07 06:43:10;;;;;;;5.78;2.03;;;;;15.90;102209.00;;;;4987884;28;20208;-78
2022/10/07 06:45:38;;;;;;;5.88;2.35;;;;;16.00;102202.00;;;;4988571;28;20197;-78
2022/10/07 06:48:05;;;;;;;6.75;1.70;;;;;16.00;102202.00;;;;4972333;28;20206;-79
2022/10/07 06:50:32;;;;;;;3.80;1.52;;;;;16.10;102202.00;;;;4981020;28;20198;-78
2022/10/07 06:53:01;;;;;;;6.13;1.98;;;;;16.10;102199.00;;;;4986995;28;20789;-78
2022/10/07 06:55:28;;;;;;;5.90;1.70;;;;;16.20;102196.00;;;;4988600;28;20665;-79
2022/10/07 06:57:55;;;;;;;7.85;2.58;;;;;16.20;102196.00;;;;4989780;28;20221;-79
2022/10/07 07:00:22;;;;;;;7.97;1.73;;;;;16.30;102201.00;;;;4988230;28;20229;-78
2022/10/07 07:02:50;;;;;;;7.75;2.05;;;;;16.30;102198.00;;;;4989061;28;20566;-78
2022/10/07 07:05:18;;;;;;;8.15;2.17;;;;;16.40;102201.00;;;;4970979;28;20206;-78
2022/10/07 07:07:45;;;;;;;7.63;1.52;;;;;16.40;102210.00;;;;4987811;28;20256;-77
2022/10/07 07:10:13;;;;;;;8.00;1.98;;;;;16.40;102201.00;;;;4989549;28;20201;-77
2022/10/07 07:12:41;;;;;;;7.50;1.88;;;;;16.50;102196.00;;;;4987461;28;20213;-77
2022/10/07 07:15:09;;;;;;;5.20;2.05;;;;;16.50;102206.00;;;;4986374;28;20579;-77
2022/10/07 07:17:36;;;;;;;4.45;1.27;;;;;16.60;102201.00;;;;4988320;28;20237;-77
2022/10/07 07:20:04;;;;;;;7.80;1.80;;;;;16.60;102197.00;;;;4988764;28;20205;-78
2022/10/07 07:22:31;;;;;;;3.33;1.08;;;;;16.60;102200.00;;;;4988285;28;20209;-78
2022/10/07 07:24:58;;;;;;;4.28;1.75;;;;;16.60;102202.00;;;;4989093;28;20194;-78
2022/10/07 07:27:27;;;;;;;4.35;1.50;;;;;16.70;102198.00;;;;4987583;28;20213;-78
2022/10/07 07:29:54;;;;;;;4.78;1.55;;;;;16.70;102196.00;;;;4989468;28;20213;-78
2022/10/07 07:32:21;;;;;;;5.30;1.40;;;;;16.80;102198.00;;;;4988850;28;20212;-78
2022/10/07 07:34:48;;;;;;;4.35;1.10;;;;;16.90;102197.00;;;;4976823;28;20198;-79
2022/10/07 07:37:17;;;;;;;5.95;1.52;;;;;16.90;102200.00;;;;4984897;28;20715;-78
2022/10/07 07:39:44;;;;;;;6.72;1.70;;;;;17.00;102189.00;;;;4983397;28;20201;-78
2022/10/07 07:42:11;;;;;;;6.47;1.40;;;;;17.10;102191.00;;;;4988959;28;20209;-78
2022/10/07 07:44:41;;;;;;;6.28;1.25;;;;;17.20;102200.00;;;;4988718;28;20197;-78
2022/10/07 07:47:08;;;;;;;6.07;1.23;;;;;17.20;102202.00;;;;4990146;28;20205;-78
2022/10/07 07:49:35;;;;;;;4.18;1.23;;;;;17.30;102193.00;;;;4992378;28;20206;-78
2022/10/07 07:52:04;;;;;;;9.10;2.17;;;;;17.40;102196.00;;;;4993156;28;20202;-78
2022/10/07 07:54:32;;;;;;;5.70;1.77;;;;;17.50;102198.00;;;;4989163;28;20202;-78
2022/10/07 07:57:00;;;;;;;5.03;1.73;;;;;17.60;102194.00;;;;4972791;28;20229;-78
2022/10/07 07:59:27;;;;;;;8.45;1.95;;;;;17.70;102192.00;;;;4973118;28;20206;-79
2022/10/07 08:01:56;;;;;;;4.80;1.35;;;;;17.70;102195.00;;;;4980253;28;20198;-78
2022/10/07 08:04:23;;;;;;;2.13;1.30;;;;;17.80;102184.00;;;;4992051;28;20224;-78
2022/10/07 08:06:51;;;;;;;6.78;1.50;;;;;17.90;102183.00;;;;4991494;28;20260;-79
2022/10/07 08:09:19;;;;;;;6.25;1.42;;;;;18.00;102190.00;;;;4983720;28;20683;-78
2022/10/07 08:11:46;;;;;;;6.18;1.80;;;;;18.10;102184.00;;;;4975664;28;20194;-78
2022/10/07 08:14:14;;;;;;;5.55;1.70;;;;;18.20;102191.00;;;;4972796;28;20226;-78
2022/10/07 08:16:42;;;;;;;7.75;1.80;;;;;18.30;102171.00;;;;4972757;28;20734;-78
2022/10/07 08:19:11;;;;;;;7.70;1.80;;;;;18.30;102175.00;;;;4978747;28;20225;-79
2022/10/07 08:21:39;;;;;;;7.97;2.00;;;;;18.40;102175.00;;;;4991437;28;20741;-79
2022/10/07 08:24:08;;;;;;;3.35;1.23;;;;;18.50;102175.00;;;;4990710;28;20646;-78
2022/10/07 08:26:37;;;;;;;5.90;1.48;;;;;18.60;102178.00;;;;4991280;28;20221;-79
2022/10/07 08:29:05;;;;;;;7.43;2.40;;;;;18.70;102177.00;;;;4983453;28;20700;-78
2022/10/07 08:31:32;;;;;;;6.53;1.50;;;;;18.80;102168.00;;;;4980515;28;20208;-78
2022/10/07 08:34:02;;;;;;;5.63;1.77;;;;;18.80;102171.00;;;;4990824;28;20209;-78
2022/10/07 08:36:32;;;;;;;5.28;1.40;;;;;18.90;102176.00;;;;4992034;28;20209;-79
2022/10/07 08:39:00;;;;;;;8.52;1.80;;;;;18.90;102176.00;;;;4991566;28;20232;-79
2022/10/07 08:41:50;;;;;;;5.63;1.75;;;;;18.90;102169.00;;;;4990285;28;20201;-79
2022/10/07 08:44:24;;;;;;;6.35;1.90;;;;;19.00;102169.00;;;;4991972;28;20308;-81
2022/10/07 08:46:58;;;;;;;10.05;2.28;;;;;19.00;102171.00;;;;4991711;28;20217;-79
2022/10/07 08:49:34;;;;;;;7.85;2.03;;;;;19.00;102173.00;;;;4990525;28;20209;-79
2022/10/07 08:52:11;;;;;;;8.00;2.38;;;;;19.10;102170.00;;;;4989531;28;20236;-80
2022/10/07 08:54:38;;;;;;;8.82;2.08;;;;;19.10;102169.00;;;;4989043;28;20219;-79
2022/10/07 08:57:13;;;;;;;6.50;1.85;;;;;19.10;102162.00;;;;4990935;28;20586;-79
2022/10/07 08:59:48;;;;;;;8.10;1.77;;;;;19.20;102157.00;;;;4988814;28;20229;-79
2022/10/07 09:02:28;;;;;;;4.75;1.75;;;;;19.20;102157.00;;;;4989544;28;20208;-79
2022/10/07 09:05:05;;;;;;;6.82;1.88;;;;;19.30;102160.00;;;;4980741;28;20940;-80
2022/10/07 09:07:36;;;;;;;9.45;2.15;;;;;19.30;102154.00;;;;4975676;28;20209;-80
2022/10/07 09:10:21;;;;;;;7.43;1.60;;;;;19.30;102149.00;;;;4979761;28;20217;-78
2022/10/07 09:12:52;;;;;;;7.80;1.90;;;;;19.40;102156.00;;;;4972288;28;20198;-79
2022/10/07 09:15:26;;;;;;;8.55;1.67;;;;;19.40;102150.00;;;;4975987;28;20264;-79
2022/10/07 09:17:59;;;;;;;6.30;1.67;;;;;19.40;102153.00;;;;4978421;28;20280;-79
2022/10/07 09:20:30;;;;;;;5.05;1.77;;;;;19.40;102150.00;;;;4972489;28;20210;-79
2022/10/07 09:23:00;;;;;;;4.60;1.67;;;;;19.50;102153.00;;;;4982111;28;20292;-78
2022/10/07 09:25:29;;;;;;;2.28;1.10;;;;;19.50;102142.00;;;;4989636;28;20574;-79
2022/10/07 09:27:57;;;;;;;4.50;1.23;;;;;19.60;102144.00;;;;4989559;28;20221;-79
2022/10/07 09:30:26;;;;;;;3.83;1.20;;;;;19.70;102144.00;;;;4984110;28;20189;-78
2022/10/07 09:32:55;;;;;;;5.72;1.33;;;;;19.70;102138.00;;;;4980852;28;20615;-79
2022/10/07 09:35:24;;;;;;;6.32;1.42;;;;;19.80;102134.00;;;;4988920;28;20197;-79
2022/10/07 09:38:00;;;;;;;3.20;1.15;;;;;19.90;102133.00;;;;4981689;28;20229;-79
2022/10/07 09:41:13;;;;;;;3.83;1.27;;;;;19.90;102137.00;;;;4990240;28;20209;-79
2022/10/07 09:43:31;;;;;;;10.50;1.70;;;;;20.10;102135.00;;;;4971033;28;20202;-78
2022/10/07 09:46:00;;;;;;;3.83;1.10;;;;;20.20;102136.00;;;;4983848;28;20695;-79
2022/10/07 09:48:31;;;;;;;5.65;1.10;;;;;20.20;102127.00;;;;4984182;28;20652;-78
2022/10/07 09:51:24;;;;;;;5.47;1.20;;;;;20.10;102119.00;;;;4990184;28;20202;-80
2022/10/07 09:54:00;;;;;;;5.90;1.90;;;;;20.20;102122.00;;;;4983466;28;20205;-78
2022/10/07 09:56:38;;;;;;;4.15;1.25;;;;;20.30;102119.00;;;;4990654;28;20618;-79
2022/10/07 09:59:22;;;;;;;3.78;1.25;;;;;20.30;102118.00;;;;4989901;28;20233;-78
2022/10/07 10:01:52;;;;;;;6.40;1.42;;;;;20.50;102113.00;;;;4986865;28;20216;-78
2022/10/07 10:04:23;;;;;;;8.07;1.33;;;;;20.60;102109.00;;;;4985982;28;20980;-78
2022/10/07 10:06:52;;;;;;;10.02;1.98;;;;;20.60;102111.00;;;;4977220;28;20189;-78
2022/10/07 10:09:24;;;;;;;3.75;1.63;;;;;20.70;102105.00;;;;4980285;28;20207;-80
2022/10/07 10:12:12;;;;;;;5.50;1.25;;;;;20.70;102096.00;;;;4985963;28;20209;-79
2022/10/07 10:14:51;;;;;;;3.08;1.08;;;;;20.80;102096.00;;;;4985744;28;20691;-79
2022/10/07 10:17:28;;;;;;;3.50;1.20;;;;;21.00;102091.00;;;;4985541;28;20199;-80
2022/10/07 10:19:56;;;;;;;3.90;1.30;;;;;21.10;102093.00;;;;4985114;28;20675;-80
2022/10/07 10:22:26;;;;;;;5.60;1.88;;;;;21.20;102093.00;;;;4988444;28;20193;-80
2022/10/07 10:27:49;;;;;;;3.85;1.10;;;;;21.30;102072.00;;;;4988397;28;20259;-80
2022/10/07 10:30:24;;;;;;;2.58;1.20;;;;;21.40;102079.00;;;;5074811;27;1310858;-79
2022/10/07 10:33:16;;;;;;;4.20;1.00;;;;;21.60;102076.00;;;;5105543;28;20190;-79
2022/10/07 10:35:53;;;;;;;9.35;1.25;;;;;21.80;102078.00;;;;5099869;28;20206;-79
2022/10/07 10:38:35;;;;;;;4.65;1.20;;;;;21.90;102085.00;;;;5104359;28;20205;-78
2022/10/07 10:41:10;;;;;;;3.22;1.30;;;;;22.10;102078.00;;;;5101667;28;20204;-78
2022/10/07 10:44:01;;;;;;;4.65;0.90;;;;;22.20;102078.00;;;;5100849;28;20408;-79
2022/10/07 10:46:39;;;;;;;6.18;1.00;;;;;22.40;102074.00;;;;5104182;28;20217;-78
2022/10/07 10:49:18;;;;;;;5.60;1.08;;;;;22.60;102077.00;;;;5099207;28;20592;-79
2022/10/07 10:52:01;;;;;;;5.45;1.30;;;;;22.60;102074.00;;;;5105706;28;20226;-79
2022/10/07 10:54:39;;;;;;;5.10;0.98;;;;;22.70;102061.00;;;;5103636;28;20194;-79
2022/10/07 10:57:15;;;;;;;5.40;1.27;;;;;22.70;102060.00;;;;5105099;28;20197;-79
2022/10/07 11:00:03;;;;;;;7.82;1.88;;;;;22.60;102047.00;;;;5096459;28;20270;-78
2022/10/07 11:02:59;;;;;;;9.00;1.20;;;;;22.70;102047.00;;;;5104509;28;20594;-80
2022/10/07 11:05:30;;;;;;;6.50;1.02;;;;;22.80;102036.00;;;;5103769;28;20259;-79
2022/10/07 11:08:02;;;;;;;5.97;1.38;;;;;22.90;102035.00;;;;5084652;28;20235;-79
2022/10/07 11:10:34;;;;;;;7.35;1.08;;;;;22.90;102030.00;;;;5100863;28;20217;-79
2022/10/07 11:13:14;;;;;;;4.75;1.30;;;;;23.00;102034.00;;;;5104644;28;20209;-80
2022/10/07 11:15:46;;;;;;;8.02;1.75;;;;;23.10;102033.00;;;;5104915;28;20217;-78
2022/10/07 11:18:20;;;;;;;9.23;1.10;;;;;23.10;102019.00;;;;5104036;28;20292;-80
2022/10/07 11:20:49;;;;;;;5.75;0.80;;;;;23.20;102021.00;;;;5105192;28;20197;-78
2022/10/07 11:23:23;;;;;;;9.10;1.02;;;;;23.30;102025.00;;;;5099852;28;20287;-81
2022/10/07 11:25:56;;;;;;;5.68;1.10;;;;;23.40;102011.00;;;;5102939;28;20206;-80
2022/10/07 11:28:27;;;;;;;5.55;0.90;;;;;23.40;102005.00;;;;5102125;28;20262;-79
2022/10/07 11:31:01;;;;;;;3.22;1.17;;;;;23.40;101993.00;;;;5103766;28;20189;-79
2022/10/07 11:33:38;;;;;;;5.38;1.17;;;;;23.30;101997.00;;;;5104905;28;20695;-79
2022/10/07 11:36:14;;;;;;;4.03;0.70;;;;;23.30;101995.00;;;;5103322;28;20205;-80
2022/10/07 11:38:42;;;;;;;3.42;0.70;;;;;23.30;101988.00;;;;5097048;28;20227;-78
2022/10/07 11:41:15;;;;;;;4.55;1.23;;;;;23.30;101985.00;;;;5075787;28;20195;-80
2022/10/07 11:43:45;;;;;;;4.15;0.75;;;;;23.30;101979.00;;;;5087734;28;20202;-79
2022/10/07 11:46:18;;;;;;;5.38;0.88;;;;;23.30;101976.00;;;;5090236;28;20233;-79
2022/10/07 11:48:49;;;;;;;3.15;0.68;;;;;23.30;101967.00;;;;5091311;28;20225;-78
2022/10/07 11:51:26;;;;;;;2.63;0.77;;;;;23.40;101957.00;;;;5088296;28;20671;-78
2022/10/07 11:53:56;;;;;;;2.05;0.52;;;;;23.50;101956.00;;;;5090603;28;20202;-79
2022/10/07 11:56:26;;;;;;;4.25;1.30;;;;;23.50;101955.00;;;;5090520;28;20578;-79
2022/10/07 11:59:00;;;;;;;3.80;0.85;;;;;23.50;101954.00;;;;5091222;28;20182;-78
2022/10/07 12:01:51;;;;;;;4.75;1.02;;;;;23.50;101941.00;;;;5087992;28;20264;-78
2022/10/07 12:04:37;;;;;;;2.40;0.98;;;;;23.50;101941.00;;;;5088429;28;20225;-79
2022/10/07 12:07:39;;;;;;;4.18;1.00;;;;;23.50;101940.00;;;;5089522;28;20198;-79
2022/10/07 12:10:28;;;;;;;1.88;0.55;;;;;23.60;101934.00;;;;5090184;28;20241;-78
2022/10/07 12:12:58;;;;;;;3.83;1.00;;;;;23.80;101935.00;;;;5090842;28;20198;-79
2022/10/07 12:15:28;;;;;;;2.80;0.82;;;;;23.90;101936.00;;;;5089765;28;20234;-78
2022/10/07 12:18:17;;;;;;;4.72;1.65;;;;;23.90;101935.00;;;;5090390;28;20233;-78
2022/10/07 12:20:57;;;;;;;4.10;0.82;;;;;23.90;101919.00;;;;5090899;28;20225;-78
2022/10/07 12:23:48;;;;;;;3.17;0.80;;;;;23.90;101915.00;;;;5077732;28;20191;-78
2022/10/07 12:26:52;;;;;;;4.05;1.30;;;;;24.00;101902.00;;;;5071115;28;20648;-78
2022/10/07 12:29:35;;;;;;;4.47;0.82;;;;;24.10;101902.00;;;;5089275;28;20564;-79
2022/10/07 12:32:03;;;;;;;2.05;0.80;;;;;24.20;101892.00;;;;5089709;28;20660;-79
2022/10/07 12:34:42;;;;;;;3.35;0.90;;;;;24.10;101891.00;;;;5089220;28;20325;-79
2022/10/07 12:37:50;;;;;;;3.80;1.15;;;;;24.10;101885.00;;;;5076768;28;20205;-78